Time;durP1;ratioP1;P1;durP2;ratioP2;P2;SDS_P1;SDS_P2;PMS_P1;PMS_P2;Temp;Humidity;BMP_temperature;BMP_pressure;BME280_temperature;BME280_humidity;BME280_pressure;Samples;Min_cycle;Max_cycle;Signal;HPM_P1;HPM_P2
2022/12/31 00:00:03;;;;;;;2.47;1.05;;;;;;;;;;5114239;28;20098;-58
2022/12/31 00:02:29;;;;;;;0.00;0.00;;;;;;;;;;5114521;28;20054;-58
2022/12/31 00:04:55;;;;;;;0.57;0.30;;;;;;;;;;5114239;28;20122;-58
2022/12/31 00:07:23;;;;;;;0.20;0.20;;;;;;;;;;5113959;28;20560;-58
2022/12/31 00:09:49;;;;;;;0.50;0.22;;;;;;;;;;5114273;28;20070;-58
2022/12/31 00:12:14;;;;;;;1.08;0.45;;;;;;;;;;5114326;28;20154;-58
2022/12/31 00:14:40;;;;;;;0.40;0.15;;;;;;;;;;5114710;28;20019;-58
2022/12/31 00:17:06;;;;;;;1.27;0.50;;;;;;;;;;5114706;28;20434;-58
2022/12/31 00:19:32;;;;;;;0.70;0.30;;;;;;;;;;5114198;28;20449;-58
2022/12/31 00:21:58;;;;;;;0.55;0.28;;;;;;;;;;5114696;28;20455;-58
2022/12/31 00:24:24;;;;;;;0.30;0.10;;;;;;;;;;5114447;28;20036;-59
2022/12/31 00:26:50;;;;;;;0.57;0.20;;;;;;;;;;5114165;28;20059;-58
2022/12/31 00:29:16;;;;;;;1.45;0.40;;;;;;;;;;5113702;28;20023;-58
2022/12/31 00:31:42;;;;;;;1.55;0.50;;;;;;;;;;5114002;28;20019;-58
2022/12/31 00:34:09;;;;;;;2.03;0.43;;;;;;;;;;5114477;28;20119;-58
2022/12/31 00:36:36;;;;;;;1.25;0.28;;;;;;;;;;5113989;28;20032;-58
2022/12/31 00:39:03;;;;;;;1.65;0.20;;;;;;;;;;5114284;28;20110;-58
2022/12/31 00:41:29;;;;;;;0.73;0.32;;;;;;;;;;5113996;28;20096;-58
2022/12/31 00:43:55;;;;;;;0.50;0.20;;;;;;;;;;5113967;28;20028;-58
2022/12/31 00:46:22;;;;;;;0.30;0.20;;;;;;;;;;5113867;28;20038;-59
2022/12/31 00:48:48;;;;;;;0.57;0.30;;;;;;;;;;5113933;28;20027;-58
2022/12/31 00:51:15;;;;;;;0.70;0.30;;;;;;;;;;5113865;28;20035;-58
2022/12/31 00:53:41;;;;;;;0.40;0.10;;;;;;;;;;5113689;28;20028;-59
2022/12/31 00:56:11;;;;;;;0.50;0.30;;;;;;;;;;5114384;28;20058;-58
2022/12/31 00:58:37;;;;;;;0.30;0.20;;;;;;;;;;5113763;28;20019;-58
2022/12/31 01:01:16;;;;;;;0.60;0.20;;;;;;;;;;5114211;28;20419;-58
2022/12/31 01:03:42;;;;;;;0.22;0.10;;;;;;;;;;5113335;28;20082;-58
2022/12/31 01:06:09;;;;;;;1.48;0.60;;;;;;;;;;5114316;28;20027;-58
2022/12/31 01:08:35;;;;;;;1.55;0.52;;;;;;;;;;5113694;28;20099;-58
2022/12/31 01:13:57;;;;;;;0.28;0.13;;;;;;;;;;5117223;28;20030;-58
2022/12/31 01:16:24;;;;;;;0.20;0.10;;;;;;;;;;5118026;28;20106;-59
2022/12/31 01:18:51;;;;;;;0.47;0.20;;;;;;;;;;5117160;28;20020;-59
2022/12/31 01:21:17;;;;;;;0.30;0.10;;;;;;;;;;5117817;28;20089;-59
2022/12/31 01:23:43;;;;;;;0.57;0.30;;;;;;;;;;5117864;28;20035;-59
2022/12/31 01:26:10;;;;;;;1.10;0.60;;;;;;;;;;5117664;28;20392;-58
2022/12/31 01:28:36;;;;;;;1.92;1.05;;;;;;;;;;5117462;28;20065;-59
2022/12/31 01:31:04;;;;;;;0.85;0.40;;;;;;;;;;5117158;28;20077;-59
2022/12/31 01:33:29;;;;;;;0.82;0.43;;;;;;;;;;5117487;28;20020;-59
2022/12/31 01:35:55;;;;;;;0.50;0.30;;;;;;;;;;5117082;28;20350;-58
2022/12/31 01:38:21;;;;;;;0.77;0.25;;;;;;;;;;5117077;28;20034;-58
2022/12/31 01:40:47;;;;;;;0.30;0.20;;;;;;;;;;5116965;28;20035;-59
2022/12/31 01:43:18;;;;;;;4.25;0.30;;;;;;;;;;5116536;28;20106;-59
2022/12/31 01:45:49;;;;;;;0.85;0.40;;;;;;;;;;5117249;28;20027;-59
2022/12/31 01:48:14;;;;;;;;;;;;;;;;;;5116917;28;20497;-59
2022/12/31 01:50:41;;;;;;;0.63;0.30;;;;;;;;;;5116802;28;19904;-59
2022/12/31 01:53:08;;;;;;;0.77;0.40;;;;;;;;;;5116538;28;20031;-59
2022/12/31 01:55:37;;;;;;;2.95;0.40;;;;;;;;;;5117021;28;20036;-58
2022/12/31 01:58:05;;;;;;;0.80;0.30;;;;;;;;;;5116550;28;20066;-59
2022/12/31 02:00:32;;;;;;;1.02;0.50;;;;;;;;;;5116567;28;20047;-59
2022/12/31 02:02:58;;;;;;;1.85;0.75;;;;;;;;;;5116258;28;20439;-57
2022/12/31 02:05:33;;;;;;;0.52;0.30;;;;;;;;;;5117112;28;20023;-58
2022/12/31 02:07:59;;;;;;;0.35;0.20;;;;;;;;;;5116467;28;20031;-58
2022/12/31 02:10:25;;;;;;;1.15;0.43;;;;;;;;;;5116668;28;20020;-58
2022/12/31 02:12:51;;;;;;;1.88;0.63;;;;;;;;;;5116301;28;20109;-58
2022/12/31 02:15:19;;;;;;;1.70;1.05;;;;;;;;;;5116944;28;20024;-58
2022/12/31 02:18:00;;;;;;;4.50;0.70;;;;;;;;;;5116250;28;20055;-58
2022/12/31 02:20:52;;;;;;;0.60;0.35;;;;;;;;;;5116328;28;20419;-58
2022/12/31 02:23:32;;;;;;;0.35;0.20;;;;;;;;;;5115991;28;20377;-59
2022/12/31 02:26:17;;;;;;;0.90;0.50;;;;;;;;;;5116510;28;20036;-58
2022/12/31 02:29:01;;;;;;;0.63;0.32;;;;;;;;;;5116058;28;20067;-59
2022/12/31 02:31:35;;;;;;;0.55;0.20;;;;;;;;;;5115724;28;20039;-58
2022/12/31 02:34:07;;;;;;;1.17;0.50;;;;;;;;;;5116195;28;20346;-58
2022/12/31 02:36:35;;;;;;;2.90;0.60;;;;;;;;;;5116197;28;20042;-58
2022/12/31 02:39:02;;;;;;;0.80;0.38;;;;;;;;;;5115896;28;20028;-58
2022/12/31 02:44:32;;;;;;;0.98;0.40;;;;;;;;;;5116058;28;20039;-58
2022/12/31 02:47:04;;;;;;;0.85;0.40;;;;;;;;;;5116292;28;20081;-57
2022/12/31 02:49:36;;;;;;;0.45;0.25;;;;;;;;;;5115369;28;20408;-58
2022/12/31 02:52:18;;;;;;;1.00;0.57;;;;;;;;;;5115649;28;20159;-58
2022/12/31 02:54:53;;;;;;;1.25;0.55;;;;;;;;;;5116015;28;20036;-58
2022/12/31 02:57:37;;;;;;;0.70;0.40;;;;;;;;;;5115406;28;20369;-58
2022/12/31 03:02:50;;;;;;;1.02;0.50;;;;;;;;;;5115754;28;20050;-58
2022/12/31 03:05:18;;;;;;;3.03;0.47;;;;;;;;;;5115654;28;20047;-58
2022/12/31 03:07:45;;;;;;;1.17;0.32;;;;;;;;;;5115001;28;20034;-58
2022/12/31 03:10:11;;;;;;;0.75;0.50;;;;;;;;;;5115225;28;20461;-58
2022/12/31 03:12:47;;;;;;;0.95;0.38;;;;;;;;;;5115243;28;20030;-58
2022/12/31 03:15:22;;;;;;;0.80;0.35;;;;;;;;;;5115489;28;20032;-58
2022/12/31 03:18:03;;;;;;;0.98;0.60;;;;;;;;;;5115873;28;20330;-58
2022/12/31 03:23:19;;;;;;;0.73;0.28;;;;;;;;;;5114823;28;20038;-58
2022/12/31 03:25:46;;;;;;;0.95;0.40;;;;;;;;;;5115800;28;20031;-58
2022/12/31 03:28:14;;;;;;;0.88;0.40;;;;;;;;;;5114905;28;20381;-58
2022/12/31 03:30:42;;;;;;;0.88;0.45;;;;;;;;;;5115296;28;20034;-58
2022/12/31 03:33:08;;;;;;;3.70;0.57;;;;;;;;;;5113725;28;20123;-58
2022/12/31 03:35:35;;;;;;;2.72;0.40;;;;;;;;;;5115381;28;20078;-58
2022/12/31 03:38:01;;;;;;;0.57;0.30;;;;;;;;;;5115231;28;20019;-58
2022/12/31 03:40:28;;;;;;;0.68;0.30;;;;;;;;;;5114944;28;20095;-58
2022/12/31 03:42:54;;;;;;;1.05;0.50;;;;;;;;;;5114917;28;20019;-58
2022/12/31 03:45:20;;;;;;;0.45;0.22;;;;;;;;;;5115181;28;20416;-58
2022/12/31 03:47:46;;;;;;;0.70;0.22;;;;;;;;;;5115113;28;20027;-58
2022/12/31 03:50:13;;;;;;;0.77;0.40;;;;;;;;;;5114490;28;20369;-58
2022/12/31 03:52:39;;;;;;;0.55;0.30;;;;;;;;;;5114437;28;20358;-58
2022/12/31 03:55:05;;;;;;;0.57;0.30;;;;;;;;;;5115199;28;20056;-58
2022/12/31 03:57:32;;;;;;;0.57;0.30;;;;;;;;;;5114337;28;20051;-58
2022/12/31 03:59:58;;;;;;;0.85;0.40;;;;;;;;;;5114298;28;20015;-58
2022/12/31 04:02:24;;;;;;;1.15;0.40;;;;;;;;;;5114295;28;20044;-58
2022/12/31 04:04:50;;;;;;;0.57;0.30;;;;;;;;;;5114072;28;20080;-58
2022/12/31 04:07:16;;;;;;;1.38;0.30;;;;;;;;;;5114329;28;20106;-58
2022/12/31 04:09:42;;;;;;;1.58;1.40;;;;;;;;;;5114582;28;20050;-58
2022/12/31 04:12:08;;;;;;;2.15;0.50;;;;;;;;;;5114244;28;20024;-58
2022/12/31 04:14:34;;;;;;;0.90;0.50;;;;;;;;;;5113940;28;20024;-58
2022/12/31 04:17:00;;;;;;;1.83;0.50;;;;;;;;;;5114198;28;20034;-57
2022/12/31 04:19:26;;;;;;;0.73;0.30;;;;;;;;;;5114708;28;20384;-58
2022/12/31 04:21:52;;;;;;;0.90;0.50;;;;;;;;;;5114100;28;20030;-58
2022/12/31 04:24:18;;;;;;;1.17;0.43;;;;;;;;;;5114206;28;20034;-58
2022/12/31 04:26:44;;;;;;;2.63;0.38;;;;;;;;;;5114138;28;20024;-58
2022/12/31 04:29:10;;;;;;;0.82;0.32;;;;;;;;;;5114099;28;20476;-58
2022/12/31 04:31:36;;;;;;;0.65;0.25;;;;;;;;;;5114639;28;20023;-58
2022/12/31 04:34:02;;;;;;;0.77;0.30;;;;;;;;;;5114109;28;20024;-58
2022/12/31 04:36:28;;;;;;;0.38;0.20;;;;;;;;;;5114107;28;20035;-58
2022/12/31 04:38:55;;;;;;;0.50;0.20;;;;;;;;;;5113724;28;20030;-58
2022/12/31 04:41:21;;;;;;;0.65;0.32;;;;;;;;;;5114294;28;20433;-58
2022/12/31 04:43:48;;;;;;;1.52;0.70;;;;;;;;;;5114303;28;20183;-58
2022/12/31 04:46:15;;;;;;;0.68;0.30;;;;;;;;;;5118307;28;20533;-58
2022/12/31 04:48:41;;;;;;;0.68;0.40;;;;;;;;;;5118085;28;20185;-58
2022/12/31 04:51:07;;;;;;;0.68;0.32;;;;;;;;;;5118058;28;20118;-59
2022/12/31 04:53:33;;;;;;;0.45;0.20;;;;;;;;;;5117957;28;20438;-60
2022/12/31 04:55:59;;;;;;;0.98;0.32;;;;;;;;;;5117892;28;20181;-60
2022/12/31 04:58:25;;;;;;;1.40;0.40;;;;;;;;;;5118077;28;20098;-60
2022/12/31 05:00:53;;;;;;;0.32;0.20;;;;;;;;;;5117567;28;20077;-60
2022/12/31 05:03:19;;;;;;;0.55;0.35;;;;;;;;;;5117197;28;20067;-60
2022/12/31 05:05:46;;;;;;;1.05;0.47;;;;;;;;;;5118310;28;20073;-59
2022/12/31 05:08:12;;;;;;;0.82;0.35;;;;;;;;;;5117761;28;20024;-59
2022/12/31 05:10:41;;;;;;;1.00;0.40;;;;;;;;;;5117689;28;20028;-59
2022/12/31 05:13:07;;;;;;;1.42;0.55;;;;;;;;;;5117832;28;20123;-60
2022/12/31 05:15:33;;;;;;;1.20;0.40;;;;;;;;;;5117890;28;20496;-60
2022/12/31 05:17:59;;;;;;;1.25;0.30;;;;;;;;;;5117442;28;20027;-60
2022/12/31 05:20:25;;;;;;;0.88;0.30;;;;;;;;;;5117467;28;20369;-60
2022/12/31 05:22:51;;;;;;;0.50;0.20;;;;;;;;;;5117986;28;20050;-60
2022/12/31 05:25:17;;;;;;;0.65;0.28;;;;;;;;;;5117748;28;20031;-59
2022/12/31 05:27:43;;;;;;;0.82;0.45;;;;;;;;;;5117590;28;20027;-59
2022/12/31 05:30:09;;;;;;;0.52;0.30;;;;;;;;;;5117260;28;20023;-59
2022/12/31 05:32:35;;;;;;;0.60;0.30;;;;;;;;;;5116959;28;20516;-60
2022/12/31 05:35:01;;;;;;;0.47;0.22;;;;;;;;;;5117502;28;20119;-59
2022/12/31 05:37:28;;;;;;;0.20;0.10;;;;;;;;;;5116848;28;20081;-60
2022/12/31 05:39:54;;;;;;;0.65;0.30;;;;;;;;;;5117043;28;20028;-59
2022/12/31 05:42:20;;;;;;;0.50;0.30;;;;;;;;;;5117055;28;20416;-59
2022/12/31 05:44:46;;;;;;;1.65;0.55;;;;;;;;;;5117602;28;20032;-59
2022/12/31 05:47:12;;;;;;;0.25;0.10;;;;;;;;;;5116931;28;20036;-59
2022/12/31 05:49:38;;;;;;;1.48;0.57;;;;;;;;;;5116838;28;20024;-59
2022/12/31 05:52:05;;;;;;;0.52;0.25;;;;;;;;;;5117157;28;20036;-59
2022/12/31 05:54:31;;;;;;;0.80;0.30;;;;;;;;;;5117414;28;20076;-59
2022/12/31 05:56:57;;;;;;;0.40;0.20;;;;;;;;;;5115958;28;20031;-59
2022/12/31 05:59:23;;;;;;;0.57;0.30;;;;;;;;;;5116803;28;20032;-59
2022/12/31 06:01:49;;;;;;;1.17;0.43;;;;;;;;;;5116814;28;20054;-58
2022/12/31 06:04:15;;;;;;;0.70;0.25;;;;;;;;;;5117028;28;20032;-58
2022/12/31 06:06:41;;;;;;;0.73;0.28;;;;;;;;;;5116610;28;20412;-57
2022/12/31 06:09:07;;;;;;;0.90;0.40;;;;;;;;;;5116566;28;20045;-58
2022/12/31 06:11:33;;;;;;;0.45;0.25;;;;;;;;;;5116506;28;20028;-57
2022/12/31 06:13:59;;;;;;;1.20;0.50;;;;;;;;;;5116422;28;20032;-57
2022/12/31 06:16:25;;;;;;;0.77;0.38;;;;;;;;;;5116937;28;20387;-57
2022/12/31 06:18:51;;;;;;;1.00;0.40;;;;;;;;;;5116826;28;20431;-57
2022/12/31 06:21:18;;;;;;;1.00;0.45;;;;;;;;;;5116585;28;20453;-57
2022/12/31 06:23:44;;;;;;;0.55;0.30;;;;;;;;;;5116401;28;20036;-58
2022/12/31 06:26:09;;;;;;;0.60;0.40;;;;;;;;;;5116282;28;20024;-57
2022/12/31 06:28:35;;;;;;;0.80;0.32;;;;;;;;;;5116584;28;20027;-58
2022/12/31 06:31:02;;;;;;;0.60;0.40;;;;;;;;;;5116089;28;20026;-58
2022/12/31 06:33:29;;;;;;;0.70;0.35;;;;;;;;;;5115946;28;20059;-58
2022/12/31 06:35:59;;;;;;;1.25;0.50;;;;;;;;;;5116571;28;20032;-57
2022/12/31 06:38:25;;;;;;;0.77;0.37;;;;;;;;;;5115718;28;20024;-57
2022/12/31 06:40:51;;;;;;;0.82;0.40;;;;;;;;;;5116159;28;20344;-57
2022/12/31 06:43:17;;;;;;;0.77;0.40;;;;;;;;;;5115852;28;20062;-58
2022/12/31 06:45:43;;;;;;;1.33;0.57;;;;;;;;;;5116135;28;20442;-58
2022/12/31 06:48:09;;;;;;;0.98;0.47;;;;;;;;;;5115496;28;20024;-58
2022/12/31 06:50:35;;;;;;;0.82;0.40;;;;;;;;;;5116020;28;20085;-57
2022/12/31 06:53:01;;;;;;;0.60;0.32;;;;;;;;;;5115575;28;20031;-57
2022/12/31 06:55:27;;;;;;;0.82;0.38;;;;;;;;;;5116176;28;20034;-57
2022/12/31 06:57:53;;;;;;;0.88;0.43;;;;;;;;;;5115928;28;20110;-57
2022/12/31 07:00:20;;;;;;;1.15;0.20;;;;;;;;;;5115527;28;20077;-58
2022/12/31 07:03:09;;;;;;;0.50;0.30;;;;;;;;;;5115689;28;20373;-58
2022/12/31 07:05:53;;;;;;;0.88;0.47;;;;;;;;;;5115956;28;20023;-58
2022/12/31 07:08:38;;;;;;;0.70;0.40;;;;;;;;;;5115233;28;20052;-57
2022/12/31 07:11:04;;;;;;;1.33;0.60;;;;;;;;;;5115260;28;20374;-58
2022/12/31 07:13:48;;;;;;;1.40;0.40;;;;;;;;;;5115193;28;20516;-58
2022/12/31 07:16:17;;;;;;;0.98;0.40;;;;;;;;;;5115755;28;20036;-58
2022/12/31 07:18:46;;;;;;;0.98;0.32;;;;;;;;;;5115432;28;20055;-58
2022/12/31 07:21:13;;;;;;;1.05;0.40;;;;;;;;;;5115390;28;20024;-57
2022/12/31 07:23:39;;;;;;;0.88;0.40;;;;;;;;;;5114950;28;20477;-58
2022/12/31 07:26:14;;;;;;;1.13;0.30;;;;;;;;;;5115382;28;20027;-58
2022/12/31 07:28:53;;;;;;;1.35;0.63;;;;;;;;;;5114901;28;20477;-58
2022/12/31 07:31:31;;;;;;;0.50;0.30;;;;;;;;;;5114902;28;20031;-58
2022/12/31 07:33:58;;;;;;;0.82;0.30;;;;;;;;;;5115337;28;20396;-59
2022/12/31 07:36:43;;;;;;;1.33;0.50;;;;;;;;;;5114797;28;20027;-59
2022/12/31 07:39:10;;;;;;;0.52;0.25;;;;;;;;;;5114708;28;20020;-59
2022/12/31 07:41:39;;;;;;;1.35;0.30;;;;;;;;;;5115228;28;20024;-58
2022/12/31 07:44:16;;;;;;;1.55;0.55;;;;;;;;;;5115567;28;20024;-59
2022/12/31 07:46:54;;;;;;;0.63;0.38;;;;;;;;;;5114918;28;20446;-58
2022/12/31 07:49:20;;;;;;;0.52;0.25;;;;;;;;;;5115012;28;20022;-57
2022/12/31 07:51:46;;;;;;;2.05;0.73;;;;;;;;;;5114797;28;20342;-57
2022/12/31 07:54:12;;;;;;;1.05;0.50;;;;;;;;;;5115013;28;20484;-58
2022/12/31 07:56:38;;;;;;;0.80;0.35;;;;;;;;;;5114547;28;20110;-58
2022/12/31 07:59:13;;;;;;;0.85;0.30;;;;;;;;;;5114679;28;20024;-58
2022/12/31 08:01:51;;;;;;;0.73;0.32;;;;;;;;;;5114672;28;20020;-58
2022/12/31 08:04:22;;;;;;;2.20;0.40;;;;;;;;;;5115001;28;20023;-58
2022/12/31 08:06:48;;;;;;;2.63;0.80;;;;;;;;;;5114489;28;20055;-58
2022/12/31 08:09:33;;;;;;;1.15;0.45;;;;;;;;;;5114404;28;20428;-58
2022/12/31 08:12:00;;;;;;;1.80;0.55;;;;;;;;;;5114401;28;20019;-58
2022/12/31 08:14:26;;;;;;;0.52;0.40;;;;;;;;;;5114560;28;20031;-59
2022/12/31 08:16:53;;;;;;;2.50;0.45;;;;;;;;;;5114045;28;20534;-59
2022/12/31 08:19:28;;;;;;;0.57;0.30;;;;;;;;;;5113986;28;20106;-62
2022/12/31 08:22:06;;;;;;;1.98;0.35;;;;;;;;;;5115125;28;20027;-59
2022/12/31 08:24:55;;;;;;;1.38;0.50;;;;;;;;;;5114838;28;20034;-59
2022/12/31 08:27:30;;;;;;;1.48;0.55;;;;;;;;;;5100686;28;20071;-59
2022/12/31 08:30:02;;;;;;;1.30;0.73;;;;;;;;;;5114217;28;20031;-59
2022/12/31 08:32:31;;;;;;;0.88;0.40;;;;;;;;;;5114177;28;20032;-59
2022/12/31 08:35:05;;;;;;;3.30;0.45;;;;;;;;;;5114522;28;20489;-59
2022/12/31 08:37:41;;;;;;;1.25;0.50;;;;;;;;;;5114097;28;20059;-59
2022/12/31 08:40:07;;;;;;;2.60;0.43;;;;;;;;;;5114281;28;20039;-60
2022/12/31 08:42:39;;;;;;;1.10;0.52;;;;;;;;;;5114552;28;20091;-59
2022/12/31 08:45:24;;;;;;;0.90;0.40;;;;;;;;;;5114358;28;20089;-59
2022/12/31 08:47:56;;;;;;;0.73;0.40;;;;;;;;;;5113962;28;20114;-59
2022/12/31 08:50:22;;;;;;;0.85;0.52;;;;;;;;;;5113934;28;20020;-59
2022/12/31 08:52:48;;;;;;;0.60;0.38;;;;;;;;;;5113929;28;20019;-59
2022/12/31 08:55:15;;;;;;;1.70;0.50;;;;;;;;;;5114476;28;20027;-59
2022/12/31 08:57:44;;;;;;;1.23;0.77;;;;;;;;;;5113909;28;20058;-60
2022/12/31 09:00:13;;;;;;;2.35;0.52;;;;;;;;;;5114124;28;20028;-59
2022/12/31 09:02:54;;;;;;;1.58;0.50;;;;;;;;;;5113897;28;20040;-60
2022/12/31 09:05:20;;;;;;;0.63;0.40;;;;;;;;;;5114156;28;20038;-60
2022/12/31 09:07:55;;;;;;;0.93;0.40;;;;;;;;;;5114174;28;20373;-59
2022/12/31 09:10:24;;;;;;;0.70;0.30;;;;;;;;;;5113771;28;20028;-59
2022/12/31 09:13:09;;;;;;;0.85;0.50;;;;;;;;;;5114006;28;20107;-59
2022/12/31 09:15:42;;;;;;;0.88;0.30;;;;;;;;;;5113647;28;20483;-59
2022/12/31 09:18:08;;;;;;;0.85;0.45;;;;;;;;;;5113877;28;20115;-59
2022/12/31 09:20:35;;;;;;;1.17;0.40;;;;;;;;;;5113720;28;20020;-59
2022/12/31 09:23:02;;;;;;;1.45;0.55;;;;;;;;;;5113664;28;20024;-59
2022/12/31 09:25:28;;;;;;;0.95;0.30;;;;;;;;;;5113982;28;20023;-59
2022/12/31 09:28:03;;;;;;;0.85;0.40;;;;;;;;;;5114004;28;20466;-59
2022/12/31 09:30:34;;;;;;;0.88;0.35;;;;;;;;;;5113427;28;20024;-58
2022/12/31 09:33:03;;;;;;;1.10;0.60;;;;;;;;;;5117104;28;20031;-59
2022/12/31 09:35:29;;;;;;;0.95;0.30;;;;;;;;;;5117361;28;20035;-59
2022/12/31 09:37:57;;;;;;;1.25;0.60;;;;;;;;;;5117049;28;20110;-57
2022/12/31 09:40:43;;;;;;;0.65;0.20;;;;;;;;;;5117001;28;20055;-57
2022/12/31 09:43:12;;;;;;;0.50;0.20;;;;;;;;;;5099897;28;20039;-56
2022/12/31 09:45:57;;;;;;;1.02;0.45;;;;;;;;;;5117188;28;20016;-52
2022/12/31 09:48:23;;;;;;;0.82;0.50;;;;;;;;;;5116789;28;20038;-55
2022/12/31 09:50:53;;;;;;;1.60;0.50;;;;;;;;;;5117132;28;20091;-55
2022/12/31 09:53:25;;;;;;;2.38;0.63;;;;;;;;;;5117165;28;20031;-55
2022/12/31 09:56:12;;;;;;;1.27;0.50;;;;;;;;;;5116520;28;20058;-56
2022/12/31 09:58:38;;;;;;;0.80;0.30;;;;;;;;;;5116477;28;20023;-52
2022/12/31 10:01:16;;;;;;;1.13;0.50;;;;;;;;;;5116529;28;20027;-54
2022/12/31 10:04:00;;;;;;;1.10;0.45;;;;;;;;;;5116292;28;20056;-55
2022/12/31 10:06:45;;;;;;;0.60;0.30;;;;;;;;;;5116788;28;20019;-56
2022/12/31 10:09:16;;;;;;;3.38;0.50;;;;;;;;;;5116057;28;20023;-55
2022/12/31 10:11:59;;;;;;;0.70;0.28;;;;;;;;;;5116818;28;20027;-53
2022/12/31 10:14:45;;;;;;;1.83;0.43;;;;;;;;;;5116255;28;20457;-55
2022/12/31 10:17:14;;;;;;;0.73;0.30;;;;;;;;;;5116656;28;20032;-55
2022/12/31 10:19:55;;;;;;;0.85;0.40;;;;;;;;;;5116251;28;20032;-55
2022/12/31 10:22:21;;;;;;;0.90;0.35;;;;;;;;;;5117178;28;20504;-57
2022/12/31 10:25:05;;;;;;;1.08;0.40;;;;;;;;;;5116577;28;20019;-57
2022/12/31 10:27:31;;;;;;;1.23;0.45;;;;;;;;;;5116214;28;20047;-56
2022/12/31 10:30:02;;;;;;;0.68;0.35;;;;;;;;;;5116646;28;20444;-57
2022/12/31 10:32:28;;;;;;;;;;;;;;;;;;5117386;28;20063;-58
2022/12/31 10:35:13;;;;;;;0.82;0.22;;;;;;;;;;5116251;28;20406;-58
2022/12/31 10:37:39;;;;;;;1.75;0.65;;;;;;;;;;5115996;28;20031;-58
2022/12/31 10:40:18;;;;;;;3.38;0.50;;;;;;;;;;5115474;28;20031;-58
2022/12/31 10:42:52;;;;;;;2.10;0.50;;;;;;;;;;5115736;28;20051;-58
2022/12/31 10:45:37;;;;;;;1.55;0.47;;;;;;;;;;5115608;28;20484;-58
2022/12/31 10:48:09;;;;;;;1.27;0.68;;;;;;;;;;5115774;28;20038;-58
2022/12/31 10:50:54;;;;;;;0.52;0.22;;;;;;;;;;5116027;28;20028;-58
2022/12/31 10:53:36;;;;;;;0.65;0.25;;;;;;;;;;5115691;28;20120;-58
2022/12/31 10:56:21;;;;;;;0.50;0.20;;;;;;;;;;5115950;28;20035;-58
2022/12/31 10:58:53;;;;;;;1.45;0.50;;;;;;;;;;5115173;28;20462;-58
2022/12/31 11:01:23;;;;;;;0.90;0.45;;;;;;;;;;5097253;28;20068;-57
2022/12/31 11:04:09;;;;;;;0.90;0.40;;;;;;;;;;5115954;28;20065;-57
2022/12/31 11:06:47;;;;;;;0.80;0.40;;;;;;;;;;5115910;28;20059;-57
2022/12/31 11:09:16;;;;;;;0.40;0.20;;;;;;;;;;5115010;28;20023;-58
2022/12/31 11:11:57;;;;;;;0.68;0.30;;;;;;;;;;5097045;28;20390;-58
2022/12/31 11:14:47;;;;;;;0.73;0.20;;;;;;;;;;5115512;28;20023;-58
2022/12/31 11:17:32;;;;;;;5.23;0.40;;;;;;;;;;5115522;28;20465;-58
2022/12/31 11:20:13;;;;;;;3.20;1.60;;;;;;;;;;5115455;28;20152;-58
2022/12/31 11:22:57;;;;;;;3.10;0.47;;;;;;;;;;5115020;28;20043;-58
2022/12/31 11:25:33;;;;;;;0.93;0.22;;;;;;;;;;5115293;28;20072;-58
2022/12/31 11:27:59;;;;;;;1.15;0.45;;;;;;;;;;5115472;28;20035;-58
2022/12/31 11:30:46;;;;;;;0.68;0.30;;;;;;;;;;5114910;28;20467;-58
2022/12/31 11:33:27;;;;;;;5.07;4.38;;;;;;;;;;5115181;28;20026;-58
2022/12/31 11:36:05;;;;;;;2.75;1.65;;;;;;;;;;5115557;28;20031;-58
2022/12/31 11:38:49;;;;;;;5.05;3.95;;;;;;;;;;5114792;28;20039;-57
2022/12/31 11:41:32;;;;;;;139.35;126.20;;;;;;;;;;5114512;28;20106;-57
2022/12/31 11:44:16;;;;;;;4.15;3.45;;;;;;;;;;5114678;28;20445;-57
2022/12/31 11:46:48;;;;;;;3.80;0.98;;;;;;;;;;5115140;28;20081;-58
2022/12/31 11:49:27;;;;;;;1.02;0.47;;;;;;;;;;5114576;28;20449;-58
2022/12/31 11:52:12;;;;;;;1.77;0.63;;;;;;;;;;5114525;28;20457;-57
2022/12/31 11:54:53;;;;;;;1.05;0.45;;;;;;;;;;5113789;28;20411;-57
2022/12/31 11:57:26;;;;;;;2.13;0.75;;;;;;;;;;5114635;28;20028;-58
2022/12/31 11:59:58;;;;;;;0.32;0.20;;;;;;;;;;5115225;28;20115;-58
2022/12/31 12:02:25;;;;;;;0.50;0.25;;;;;;;;;;5114088;28;20081;-57
2022/12/31 12:04:52;;;;;;;1.42;0.60;;;;;;;;;;5114467;28;20027;-58
2022/12/31 12:07:19;;;;;;;0.70;0.38;;;;;;;;;;5114397;28;20024;-58
2022/12/31 12:09:45;;;;;;;2.20;0.60;;;;;;;;;;5114322;28;20361;-57
2022/12/31 12:12:12;;;;;;;1.30;0.50;;;;;;;;;;5114889;28;20072;-57
2022/12/31 12:14:39;;;;;;;1.15;0.38;;;;;;;;;;5114826;28;20032;-58
2022/12/31 12:17:10;;;;;;;0.63;0.28;;;;;;;;;;5114321;28;20023;-58
2022/12/31 12:19:41;;;;;;;0.85;0.40;;;;;;;;;;5114232;28;20400;-58
2022/12/31 12:22:12;;;;;;;0.77;0.30;;;;;;;;;;5114554;28;20024;-57
2022/12/31 12:24:38;;;;;;;0.82;0.38;;;;;;;;;;5113994;28;20046;-56
2022/12/31 12:27:04;;;;;;;1.15;0.40;;;;;;;;;;5113849;28;20019;-57
2022/12/31 12:29:34;;;;;;;1.02;0.32;;;;;;;;;;5114200;28;20027;-58
2022/12/31 12:32:00;;;;;;;0.65;0.30;;;;;;;;;;5114905;28;20020;-58
2022/12/31 12:34:28;;;;;;;0.70;0.32;;;;;;;;;;5114391;28;20530;-57
2022/12/31 12:36:54;;;;;;;2.63;0.60;;;;;;;;;;5113640;28;20023;-57
2022/12/31 12:39:24;;;;;;;4.68;0.50;;;;;;;;;;5114335;28;20107;-58
2022/12/31 12:42:00;;;;;;;0.82;0.40;;;;;;;;;;5114143;28;20472;-57
2022/12/31 12:44:26;;;;;;;0.43;0.30;;;;;;;;;;5114206;28;20020;-58
2022/12/31 12:46:52;;;;;;;0.28;0.17;;;;;;;;;;5113768;28;20518;-57
2022/12/31 12:49:29;;;;;;;0.65;0.30;;;;;;;;;;5113548;28;20024;-58
2022/12/31 12:52:01;;;;;;;0.95;0.45;;;;;;;;;;5113947;28;20034;-58
2022/12/31 12:54:45;;;;;;;1.27;0.50;;;;;;;;;;5114337;28;20020;-58
2022/12/31 12:57:11;;;;;;;1.20;0.70;;;;;;;;;;5113901;28;20028;-58
2022/12/31 12:59:37;;;;;;;0.93;0.38;;;;;;;;;;5113878;28;20549;-58
2022/12/31 13:02:15;;;;;;;0.75;0.20;;;;;;;;;;5114065;28;20079;-58
2022/12/31 13:04:46;;;;;;;1.08;0.40;;;;;;;;;;5113491;28;20076;-57
2022/12/31 13:07:11;;;;;;;;;;;;;;;;;;5118117;28;20019;-58
2022/12/31 13:09:47;;;;;;;2.35;1.33;;;;;;;;;;5118218;28;19927;-58
2022/12/31 13:12:24;;;;;;;0.70;0.38;;;;;;;;;;5117963;28;20035;-58
2022/12/31 13:14:52;;;;;;;1.50;0.40;;;;;;;;;;5117856;28;20023;-58
2022/12/31 13:17:24;;;;;;;1.40;0.65;;;;;;;;;;5117581;28;20080;-57
2022/12/31 13:19:59;;;;;;;2.15;0.70;;;;;;;;;;5117769;28;20042;-56
2022/12/31 13:22:29;;;;;;;8.93;5.53;;;;;;;;;;5117389;28;20511;-55
2022/12/31 13:25:03;;;;;;;220.73;201.13;;;;;;;;;;5117749;28;20031;-56
2022/12/31 13:27:29;;;;;;;38.63;35.17;;;;;;;;;;5117701;28;20027;-56
2022/12/31 13:29:58;;;;;;;64.40;59.45;;;;;;;;;;5117606;28;20023;-56
2022/12/31 13:32:40;;;;;;;6.43;4.63;;;;;;;;;;5118039;28;20407;-56
2022/12/31 13:35:27;;;;;;;10.18;4.93;;;;;;;;;;5117461;28;20500;-56
2022/12/31 13:37:57;;;;;;;9.25;3.35;;;;;;;;;;5117162;28;20055;-57
2022/12/31 13:40:27;;;;;;;4.05;1.25;;;;;;;;;;5117496;28;20030;-56
2022/12/31 13:42:55;;;;;;;5.85;1.70;;;;;;;;;;5117214;28;20458;-57
2022/12/31 13:45:26;;;;;;;4.63;0.68;;;;;;;;;;5117583;28;20081;-54
2022/12/31 13:47:56;;;;;;;0.98;0.50;;;;;;;;;;5116992;28;20042;-57
2022/12/31 13:50:24;;;;;;;0.88;0.35;;;;;;;;;;5116602;28;20469;-56
2022/12/31 13:52:57;;;;;;;2.03;0.68;;;;;;;;;;5116748;28;20030;-58
2022/12/31 13:55:30;;;;;;;2.10;0.93;;;;;;;;;;5116730;28;20027;-57
2022/12/31 13:58:15;;;;;;;0.77;0.52;;;;;;;;;;5117004;28;20024;-56
2022/12/31 14:00:53;;;;;;;1.05;0.50;;;;;;;;;;5116387;28;20327;-56
2022/12/31 14:03:23;;;;;;;1.15;0.38;;;;;;;;;;5117349;28;20097;-55
2022/12/31 14:06:00;;;;;;;0.95;0.60;;;;;;;;;;5116599;28;20015;-56
2022/12/31 14:08:26;;;;;;;1.50;0.75;;;;;;;;;;5116618;28;20028;-54
2022/12/31 14:10:58;;;;;;;0.90;0.60;;;;;;;;;;5116390;28;20024;-56
2022/12/31 14:13:44;;;;;;;2.85;0.63;;;;;;;;;;5116198;28;20028;-54
2022/12/31 14:16:15;;;;;;;3.60;0.60;;;;;;;;;;5116891;28;20039;-55
2022/12/31 14:19:00;;;;;;;0.77;0.30;;;;;;;;;;5115767;28;20496;-56
2022/12/31 14:21:33;;;;;;;1.02;0.47;;;;;;;;;;5116779;28;20024;-56
2022/12/31 14:24:05;;;;;;;1.63;0.50;;;;;;;;;;5115980;28;20020;-54
2022/12/31 14:26:33;;;;;;;1.10;0.52;;;;;;;;;;5116443;28;20069;-55
2022/12/31 14:28:59;;;;;;;2.17;0.70;;;;;;;;;;5115995;28;20023;-56
2022/12/31 14:31:43;;;;;;;0.82;0.45;;;;;;;;;;5116119;28;20364;-53
2022/12/31 14:34:16;;;;;;;0.98;0.43;;;;;;;;;;5116604;28;20023;-54
2022/12/31 14:36:52;;;;;;;1.42;0.60;;;;;;;;;;5116364;28;20423;-56
2022/12/31 14:39:18;;;;;;;1.48;0.73;;;;;;;;;;5115661;28;20492;-56
2022/12/31 14:42:08;;;;;;;0.85;0.40;;;;;;;;;;5116479;28;20346;-55
2022/12/31 14:44:53;;;;;;;2.28;0.40;;;;;;;;;;5116220;28;20380;-56
2022/12/31 14:47:19;;;;;;;1.15;0.50;;;;;;;;;;5116062;28;20028;-54
2022/12/31 14:50:04;;;;;;;2.65;0.73;;;;;;;;;;5115388;28;20028;-53
2022/12/31 14:52:32;;;;;;;1.42;0.68;;;;;;;;;;5115631;28;20051;-55
2022/12/31 14:54:59;;;;;;;0.93;0.55;;;;;;;;;;5115827;28;20039;-56
2022/12/31 14:57:32;;;;;;;0.95;0.52;;;;;;;;;;5115992;28;20461;-55
2022/12/31 15:00:21;;;;;;;0.88;0.50;;;;;;;;;;5115532;28;20027;-56
2022/12/31 15:02:52;;;;;;;1.75;0.60;;;;;;;;;;5115445;28;20431;-54
2022/12/31 15:05:20;;;;;;;1.70;0.60;;;;;;;;;;5115909;28;20438;-54
2022/12/31 15:07:46;;;;;;;1.10;0.55;;;;;;;;;;5115009;28;20031;-54
2022/12/31 15:10:31;;;;;;;1.55;0.77;;;;;;;;;;5115668;28;20393;-55
2022/12/31 15:13:02;;;;;;;1.50;0.63;;;;;;;;;;5115251;28;20024;-56
2022/12/31 15:15:34;;;;;;;1.48;0.77;;;;;;;;;;5115541;28;20106;-55